Time;durP1;ratioP1;P1;durP2;ratioP2;P2;SDS_P1;SDS_P2;PMS_P1;PMS_P2;Temp;Humidity;BMP_temperature;BMP_pressure;BME280_temperature;BME280_humidity;BME280_pressure;Samples;Min_cycle;Max_cycle;Signal;HPM_P1;HPM_P2
2021/01/06 00:00:40;;;;;;;10.20;7.07;;;16.30;76.20;;;;;;2072079;28;20073;-53
2021/01/06 00:01:40;;;;;;;8.93;7.00;;;16.20;76.20;;;;;;2071319;28;20076;-54
2021/01/06 00:02:41;;;;;;;7.95;6.50;;;16.20;76.40;;;;;;2071486;28;20029;-54
2021/01/06 00:03:42;;;;;;;9.30;7.00;;;16.20;76.50;;;;;;2072088;28;20431;-53
2021/01/06 00:04:42;;;;;;;9.23;7.15;;;16.30;76.30;;;;;;2071665;28;20376;-51
2021/01/06 00:05:44;;;;;;;8.88;7.00;;;16.20;76.30;;;;;;2071468;28;20030;-52
2021/01/06 00:06:45;;;;;;;9.18;6.88;;;16.20;76.30;;;;;;2072010;28;20030;-50
2021/01/06 00:07:47;;;;;;;10.00;6.90;;;16.20;76.30;;;;;;2071990;28;20548;-51
2021/01/06 00:08:48;;;;;;;8.25;6.68;;;16.30;76.30;;;;;;2072038;28;20034;-53
2021/01/06 00:09:48;;;;;;;9.25;6.90;;;16.30;76.20;;;;;;2072029;28;20034;-54
2021/01/06 00:10:54;;;;;;;11.50;6.93;;;16.30;76.20;;;;;;2072204;28;20503;-53
2021/01/06 00:11:55;;;;;;;8.80;7.00;;;16.20;76.20;;;;;;2072080;28;20499;-50
2021/01/06 00:12:56;;;;;;;9.00;7.20;;;16.30;76.20;;;;;;2079227;28;20036;-56
2021/01/06 00:13:57;;;;;;;8.73;6.63;;;16.20;76.30;;;;;;2074783;28;20060;-52
2021/01/06 00:14:57;;;;;;;9.65;7.03;;;16.20;76.30;;;;;;2071544;28;20026;-51
2021/01/06 00:15:58;;;;;;;8.75;7.00;;;16.20;76.30;;;;;;2071430;28;20029;-52
2021/01/06 00:16:59;;;;;;;9.70;6.78;;;16.30;76.30;;;;;;2063345;28;20042;-50
2021/01/06 00:18:00;;;;;;;8.25;6.80;;;16.20;76.50;;;;;;2063493;28;20777;-51
2021/01/06 00:19:01;;;;;;;8.05;7.00;;;16.20;76.30;;;;;;2071908;28;20069;-54
2021/01/06 00:20:07;;;;;;;11.63;6.95;;;16.30;76.20;;;;;;2071882;28;20080;-56
2021/01/06 00:21:10;;;;;;;7.88;6.75;;;16.20;76.30;;;;;;2071795;28;20057;-55
2021/01/06 00:22:11;;;;;;;8.20;6.75;;;16.20;76.40;;;;;;2071883;28;20477;-57
2021/01/06 00:23:12;;;;;;;11.10;6.90;;;16.20;76.30;;;;;;2071137;28;20029;-51
2021/01/06 00:24:12;;;;;;;9.98;6.88;;;16.20;76.30;;;;;;2071179;28;20038;-58
2021/01/06 00:25:20;;;;;;;8.27;6.60;;;16.40;75.90;;;;;;2070905;28;20026;-51
2021/01/06 00:26:21;;;;;;;9.13;6.78;;;16.50;75.20;;;;;;2071915;28;20080;-55
2021/01/06 00:27:22;;;;;;;7.95;6.60;;;16.70;74.60;;;;;;2071716;28;20041;-53
2021/01/06 00:28:23;;;;;;;8.95;6.80;;;16.60;74.40;;;;;;2071161;28;20046;-56
2021/01/06 00:29:23;;;;;;;8.30;6.70;;;16.50;74.40;;;;;;2071183;28;20042;-51
2021/01/06 00:30:39;;;;;;;9.38;6.80;;;16.50;74.60;;;;;;2071813;28;20030;-58
2021/01/06 00:31:45;;;;;;;8.40;6.28;;;16.50;75.50;;;;;;2071771;28;20549;-54
2021/01/06 00:32:45;;;;;;;7.78;6.60;;;16.50;74.70;;;;;;2071238;28;20022;-52
2021/01/06 00:33:46;;;;;;;8.65;7.00;;;16.50;74.60;;;;;;2071111;28;20129;-55
2021/01/06 00:34:47;;;;;;;8.63;6.80;;;16.50;74.90;;;;;;2071556;28;20121;-58
2021/01/06 00:35:56;;;;;;;8.85;6.50;;;16.40;75.10;;;;;;2071185;28;20018;-56
2021/01/06 00:36:57;;;;;;;8.27;6.70;;;16.40;75.80;;;;;;2071590;28;20033;-57
2021/01/06 00:37:58;;;;;;;9.13;6.63;;;16.70;74.60;;;;;;2071840;28;20030;-51
2021/01/06 00:38:59;;;;;;;9.10;6.93;;;16.80;74.00;;;;;;2071668;28;20633;-54
2021/01/06 00:39:59;;;;;;;8.52;6.32;;;16.70;73.80;;;;;;2071793;28;20034;-57
2021/01/06 00:41:00;;;;;;;8.73;6.28;;;16.70;73.80;;;;;;2071793;28;20037;-58
2021/01/06 00:42:01;;;;;;;7.82;6.22;;;16.80;73.60;;;;;;2071137;28;20041;-52
2021/01/06 00:43:05;;;;;;;8.32;6.60;;;16.90;73.50;;;;;;2070852;28;20034;-55
2021/01/06 00:44:05;;;;;;;9.23;6.82;;;16.80;73.30;;;;;;2071677;28;20484;-56
2021/01/06 00:45:09;;;;;;;8.77;6.50;;;16.80;73.30;;;;;;2071114;28;20057;-56
2021/01/06 00:46:09;;;;;;;9.00;6.43;;;16.80;73.50;;;;;;2071815;28;20030;-58
2021/01/06 00:47:10;;;;;;;8.32;6.53;;;16.80;73.30;;;;;;2071748;28;20053;-56
2021/01/06 00:48:12;;;;;;;7.97;6.28;;;16.80;73.30;;;;;;2071862;28;20074;-58
2021/01/06 00:49:13;;;;;;;9.75;6.97;;;16.70;73.40;;;;;;2071033;28;20091;-58
2021/01/06 00:50:15;;;;;;;7.50;6.60;;;16.70;73.80;;;;;;2063010;28;20027;-57
2021/01/06 00:51:15;;;;;;;8.85;6.25;;;16.70;73.80;;;;;;2071306;28;20034;-55
2021/01/06 00:52:16;;;;;;;7.28;6.50;;;16.70;73.60;;;;;;2071178;28;20022;-57
2021/01/06 00:53:23;;;;;;;7.75;6.30;;;16.70;73.50;;;;;;2071058;28;20686;-50
2021/01/06 00:54:26;;;;;;;8.10;6.68;;;16.70;73.50;;;;;;2071082;28;20025;-57
2021/01/06 00:55:27;;;;;;;8.48;6.40;;;16.80;73.50;;;;;;2061993;28;20030;-53
2021/01/06 00:56:33;;;;;;;8.25;6.50;;;16.70;73.60;;;;;;2062947;28;20532;-56
2021/01/06 00:57:36;;;;;;;9.05;6.55;;;16.60;73.90;;;;;;2071062;28;20040;-55
2021/01/06 00:58:37;;;;;;;9.10;6.60;;;16.60;74.10;;;;;;2071008;28;20061;-53
2021/01/06 00:59:46;;;;;;;8.30;6.60;;;16.50;74.40;;;;;;2063524;28;20049;-53
2021/01/06 01:00:47;;;;;;;8.52;6.63;;;16.40;75.00;;;;;;2070990;28;20548;-51
2021/01/06 01:01:48;;;;;;;8.20;6.78;;;16.30;75.00;;;;;;2071096;28;20033;-58
2021/01/06 01:02:52;;;;;;;6.97;6.15;;;16.30;75.20;;;;;;2063497;28;20026;-55
2021/01/06 01:03:56;;;;;;;8.05;6.47;;;16.30;75.40;;;;;;2070899;28;20116;-56
2021/01/06 01:04:57;;;;;;;8.23;6.43;;;16.20;75.80;;;;;;2070761;28;20037;-55
2021/01/06 01:05:57;;;;;;;9.10;6.70;;;16.10;76.00;;;;;;2071047;28;20028;-53
2021/01/06 01:06:58;;;;;;;8.35;6.50;;;16.10;76.20;;;;;;2071631;28;20109;-56
2021/01/06 01:07:59;;;;;;;8.68;6.68;;;16.20;76.20;;;;;;2071505;28;20080;-56
2021/01/06 01:09:00;;;;;;;8.20;6.45;;;16.10;76.30;;;;;;2071597;28;20113;-53
2021/01/06 01:10:01;;;;;;;7.35;6.35;;;16.10;76.20;;;;;;2070790;28;20068;-58
2021/01/06 01:11:01;;;;;;;8.70;6.50;;;16.10;76.40;;;;;;2071002;28;20065;-54
2021/01/06 01:12:06;;;;;;;7.93;6.57;;;16.10;76.60;;;;;;2071541;28;20029;-55
2021/01/06 01:13:15;;;;;;;8.18;6.35;;;16.20;76.40;;;;;;2079647;28;20021;-55
2021/01/06 01:14:16;;;;;;;7.72;6.18;;;16.20;76.10;;;;;;2079777;28;20109;-54
2021/01/06 01:15:24;;;;;;;8.77;6.47;;;16.20;75.90;;;;;;2078253;28;20553;-54
2021/01/06 01:16:24;;;;;;;8.07;6.43;;;16.20;75.90;;;;;;2079678;28;20537;-53
2021/01/06 01:17:25;;;;;;;8.27;6.55;;;16.20;76.00;;;;;;2079915;28;20021;-58
2021/01/06 01:18:28;;;;;;;8.23;6.72;;;16.20;76.00;;;;;;2079640;28;20380;-51
2021/01/06 01:19:29;;;;;;;8.18;6.60;;;16.20;76.00;;;;;;2079032;28;20048;-56
2021/01/06 01:20:30;;;;;;;8.85;6.50;;;16.20;75.90;;;;;;2079045;28;20104;-51
2021/01/06 01:21:31;;;;;;;7.40;6.25;;;16.20;75.90;;;;;;2079595;28;20058;-53
2021/01/06 01:22:31;;;;;;;8.13;6.10;;;16.20;75.90;;;;;;2079581;28;20484;-52
2021/01/06 01:23:32;;;;;;;7.95;6.28;;;16.20;75.80;;;;;;2079236;28;20033;-52
2021/01/06 01:24:33;;;;;;;8.10;6.53;;;16.20;75.90;;;;;;2078962;28;20041;-55
2021/01/06 01:25:33;;;;;;;8.25;6.57;;;16.20;76.00;;;;;;2078923;28;20473;-55
2021/01/06 01:26:34;;;;;;;8.15;6.70;;;16.20;76.00;;;;;;2079726;28;20640;-55
2021/01/06 01:27:35;;;;;;;9.85;6.85;;;16.20;76.10;;;;;;2079358;28;20049;-54
2021/01/06 01:28:35;;;;;;;7.97;6.32;;;16.20;76.10;;;;;;2079540;28;20060;-54
2021/01/06 01:29:36;;;;;;;8.13;6.60;;;16.20;75.90;;;;;;2079524;28;20112;-54
2021/01/06 01:30:37;;;;;;;8.30;6.40;;;16.20;76.00;;;;;;2078933;28;20021;-51
2021/01/06 01:31:37;;;;;;;7.05;6.35;;;16.20;76.00;;;;;;2078874;28;20033;-53
2021/01/06 01:32:44;;;;;;;7.43;6.47;;;16.20;75.90;;;;;;2079246;28;20025;-51
2021/01/06 01:33:45;;;;;;;7.63;6.68;;;16.20;75.70;;;;;;2079495;28;20409;-54
2021/01/06 01:34:45;;;;;;;8.90;6.72;;;16.20;76.00;;;;;;2079311;28;20040;-53
2021/01/06 01:35:46;;;;;;;7.38;6.22;;;16.20;75.90;;;;;;2078948;28;20130;-52
2021/01/06 01:36:48;;;;;;;8.60;6.57;;;16.20;76.00;;;;;;2079563;28;20029;-56
2021/01/06 01:37:50;;;;;;;9.13;6.50;;;16.10;76.10;;;;;;2079454;28;20813;-56
2021/01/06 01:38:50;;;;;;;8.63;6.68;;;16.10;76.00;;;;;;2079509;28;20047;-50
2021/01/06 01:39:51;;;;;;;8.88;6.22;;;16.10;76.10;;;;;;2079464;28;20503;-55
2021/01/06 01:40:59;;;;;;;8.20;6.68;;;16.10;76.10;;;;;;2079103;28;20479;-52
2021/01/06 01:42:00;;;;;;;10.40;6.90;;;16.10;76.20;;;;;;2079412;28;20029;-51
2021/01/06 01:43:12;;;;;;;8.07;6.55;;;16.10;76.40;;;;;;2079511;28;20036;-53
2021/01/06 01:44:14;;;;;;;9.43;6.72;;;16.20;75.80;;;;;;2079405;28;20484;-52
2021/01/06 01:45:14;;;;;;;8.27;6.25;;;16.30;75.30;;;;;;2078669;28;20480;-53
2021/01/06 01:46:47;;;;;;;8.15;6.70;;;16.50;74.90;;;;;;2079237;28;20119;-53
2021/01/06 01:48:02;;;;;;;7.53;6.60;;;16.50;74.50;;;;;;2079575;28;20728;-55
2021/01/06 01:49:05;;;;;;;7.78;6.60;;;16.40;74.50;;;;;;2079574;28;20536;-53
2021/01/06 01:50:06;;;;;;;8.13;6.40;;;16.40;74.60;;;;;;2079644;28;20021;-55
2021/01/06 01:51:25;;;;;;;7.30;6.30;;;16.40;74.40;;;;;;2079693;28;20061;-54
2021/01/06 01:52:40;;;;;;;7.75;6.22;;;16.40;74.30;;;;;;2078206;28;20026;-55
2021/01/06 01:53:45;;;;;;;7.68;6.30;;;16.40;74.50;;;;;;2079071;28;20365;-55
2021/01/06 01:54:46;;;;;;;7.40;6.38;;;16.40;74.70;;;;;;2078229;28;20048;-57
2021/01/06 01:55:48;;;;;;;7.63;6.28;;;16.50;74.60;;;;;;2079034;28;20027;-57
2021/01/06 01:57:09;;;;;;;7.70;6.20;;;16.50;74.30;;;;;;2079521;28;20109;-51
2021/01/06 01:58:13;;;;;;;;;;;16.60;74.10;;;;;;2079939;28;20040;-56
2021/01/06 01:59:29;;;;;;;8.18;6.57;;;16.60;73.70;;;;;;2079533;28;19956;-54
2021/01/06 02:00:34;;;;;;;7.90;6.50;;;16.70;74.20;;;;;;2079390;28;20037;-55
2021/01/06 02:01:37;;;;;;;9.35;6.70;;;16.60;73.50;;;;;;2079366;28;20109;-57
2021/01/06 02:02:55;;;;;;;8.75;6.90;;;16.40;74.00;;;;;;2078961;28;20025;-55
2021/01/06 02:04:10;;;;;;;9.15;6.70;;;16.40;74.30;;;;;;2079320;28;20036;-55
2021/01/06 02:05:19;;;;;;;8.07;6.30;;;16.30;74.70;;;;;;2078509;28;20021;-54
2021/01/06 02:06:28;;;;;;;8.00;6.78;;;16.20;75.00;;;;;;2079403;28;20037;-54
2021/01/06 02:07:35;;;;;;;8.82;6.80;;;16.30;75.00;;;;;;2079378;28;20022;-51
2021/01/06 02:08:57;;;;;;;8.82;6.60;;;16.40;74.60;;;;;;2079258;28;20408;-56
2021/01/06 02:10:12;;;;;;;8.80;6.75;;;16.50;74.10;;;;;;2078808;28;20779;-53
2021/01/06 02:11:22;;;;;;;7.78;6.32;;;16.60;73.80;;;;;;2078562;28;20516;-52
2021/01/06 02:12:32;;;;;;;9.88;7.00;;;16.60;73.70;;;;;;2079391;28;20034;-52
2021/01/06 02:13:44;;;;;;;9.00;6.80;;;16.60;73.70;;;;;;2077082;28;20170;-55
2021/01/06 02:15:26;;;;;;;7.85;6.70;;;16.40;73.80;;;;;;2073418;28;20045;-51
2021/01/06 02:17:04;;;;;;;8.63;6.60;;;16.40;74.40;;;;;;2079355;28;20038;-51
2021/01/06 02:18:06;;;;;;;9.02;6.88;;;16.20;75.10;;;;;;2079325;28;20034;-52
2021/01/06 02:19:07;;;;;;;8.65;6.80;;;16.10;75.60;;;;;;2078689;28;20037;-52
2021/01/06 02:20:17;;;;;;;7.22;6.47;;;16.10;75.70;;;;;;2078650;28;20675;-51
2021/01/06 02:21:20;;;;;;;8.00;6.40;;;16.00;76.00;;;;;;2079356;28;20041;-52
2021/01/06 02:22:23;;;;;;;8.57;6.93;;;16.00;76.30;;;;;;2078914;28;20037;-52
2021/01/06 02:23:23;;;;;;;8.18;7.10;;;16.00;76.20;;;;;;2079234;28;20424;-51
2021/01/06 02:24:24;;;;;;;9.07;6.85;;;16.00;76.30;;;;;;2079228;28;20043;-54
2021/01/06 02:25:28;;;;;;;8.57;6.85;;;16.00;76.30;;;;;;2078341;28;20064;-56
2021/01/06 02:26:29;;;;;;;8.57;7.00;;;16.00;76.20;;;;;;2079014;28;20068;-51
2021/01/06 02:27:30;;;;;;;8.30;6.55;;;16.00;76.30;;;;;;2079045;28;20648;-53
2021/01/06 02:28:31;;;;;;;8.25;6.55;;;16.00;76.30;;;;;;2079246;28;20047;-55
2021/01/06 02:29:34;;;;;;;8.15;6.65;;;16.10;76.20;;;;;;2079163;28;20029;-51
2021/01/06 02:30:35;;;;;;;9.02;6.85;;;16.10;75.90;;;;;;2079262;28;20036;-55
2021/01/06 02:31:35;;;;;;;7.82;6.60;;;16.10;75.80;;;;;;2079154;28;20444;-52
2021/01/06 02:32:36;;;;;;;9.00;7.03;;;16.10;75.80;;;;;;2079239;28;20548;-55
2021/01/06 02:33:38;;;;;;;8.02;6.63;;;16.10;75.80;;;;;;2078551;28;20029;-54
2021/01/06 02:34:41;;;;;;;8.68;6.88;;;16.10;75.70;;;;;;2077852;28;20033;-55
2021/01/06 02:35:42;;;;;;;7.57;6.63;;;16.10;75.80;;;;;;2078588;28;20466;-54
2021/01/06 02:36:43;;;;;;;8.43;7.03;;;16.10;75.90;;;;;;2079303;28;20037;-52
2021/01/06 02:37:44;;;;;;;8.32;6.85;;;16.10;75.80;;;;;;2079079;28;20108;-53
2021/01/06 02:38:45;;;;;;;7.72;6.93;;;16.10;75.60;;;;;;2079038;28;20116;-53
2021/01/06 02:39:48;;;;;;;9.02;6.68;;;16.20;75.60;;;;;;2079198;28;20674;-54
2021/01/06 02:40:52;;;;;;;9.32;6.97;;;16.20;75.40;;;;;;2079221;28;20448;-51
2021/01/06 02:41:53;;;;;;;8.05;6.85;;;16.20;75.30;;;;;;2079140;28;20495;-53
2021/01/06 02:42:53;;;;;;;8.73;6.90;;;16.10;75.30;;;;;;2078839;28;20032;-52
2021/01/06 02:43:54;;;;;;;8.45;6.78;;;16.10;75.60;;;;;;2079117;28;20045;-51
2021/01/06 02:44:55;;;;;;;7.45;6.65;;;16.10;75.80;;;;;;2078900;28;20037;-51
2021/01/06 02:45:57;;;;;;;8.38;7.07;;;16.10;75.80;;;;;;2078523;28;20078;-55
2021/01/06 02:46:58;;;;;;;9.13;6.68;;;16.10;76.00;;;;;;2079297;28;20022;-54
2021/01/06 02:47:58;;;;;;;7.93;6.95;;;16.00;75.80;;;;;;2079129;28;20034;-52
2021/01/06 02:49:01;;;;;;;7.82;6.80;;;16.10;75.70;;;;;;2079085;28;20026;-53
2021/01/06 02:50:03;;;;;;;7.80;6.65;;;16.10;76.50;;;;;;2078482;28;20132;-56
2021/01/06 02:51:32;;;;;;;7.78;6.38;;;16.30;75.20;;;;;;2078277;28;20034;-52
2021/01/06 02:52:39;;;;;;;9.27;6.80;;;16.40;74.40;;;;;;2078482;28;20026;-51
2021/01/06 02:53:47;;;;;;;8.23;6.57;;;16.40;74.10;;;;;;2078638;28;20482;-53
2021/01/06 02:54:49;;;;;;;8.63;7.00;;;16.40;73.90;;;;;;2078964;28;20022;-51
2021/01/06 02:55:52;;;;;;;8.40;6.70;;;16.50;73.90;;;;;;2078197;28;20021;-54
2021/01/06 02:56:56;;;;;;;7.30;6.55;;;16.50;73.90;;;;;;2079165;28;20030;-52
2021/01/06 02:57:59;;;;;;;8.07;6.72;;;16.50;73.80;;;;;;2079181;28;20601;-51
2021/01/06 02:59:03;;;;;;;8.88;7.05;;;16.40;73.60;;;;;;2079215;28;20040;-51
2021/01/06 03:00:06;;;;;;;8.52;6.95;;;16.50;73.80;;;;;;2079077;28;20057;-52
2021/01/06 03:01:10;;;;;;;7.53;6.50;;;16.50;73.70;;;;;;2079224;28;20028;-53
2021/01/06 03:02:14;;;;;;;7.60;6.80;;;16.50;73.70;;;;;;2079177;28;20025;-51
2021/01/06 03:03:15;;;;;;;8.43;6.80;;;16.40;73.80;;;;;;2079186;28;20103;-53
2021/01/06 03:04:17;;;;;;;8.15;6.68;;;16.50;73.90;;;;;;2078676;28;20034;-54
2021/01/06 03:05:28;;;;;;;9.02;6.90;;;16.50;73.70;;;;;;2078262;28;20033;-51
2021/01/06 03:06:47;;;;;;;;;;;16.40;73.90;;;;;;2081054;28;20481;-53
2021/01/06 03:07:48;;;;;;;8.32;6.95;;;16.40;74.10;;;;;;2080575;28;19966;-54
2021/01/06 03:08:49;;;;;;;9.43;6.68;;;16.30;74.20;;;;;;2080150;28;20068;-51
2021/01/06 03:09:50;;;;;;;7.65;6.63;;;16.40;74.20;;;;;;2080602;28;20021;-52
2021/01/06 03:10:50;;;;;;;8.15;6.65;;;16.40;74.00;;;;;;2080606;28;20029;-53
2021/01/06 03:11:51;;;;;;;8.65;6.93;;;16.50;73.90;;;;;;2080516;28;20029;-55
2021/01/06 03:12:55;;;;;;;7.10;6.40;;;16.40;73.80;;;;;;2080564;28;20040;-54
2021/01/06 03:13:56;;;;;;;8.15;7.07;;;16.40;73.90;;;;;;2080444;28;20030;-53
2021/01/06 03:14:59;;;;;;;8.60;7.00;;;16.30;74.20;;;;;;2080120;28;20109;-53
2021/01/06 03:16:00;;;;;;;7.40;6.60;;;16.30;75.10;;;;;;2080009;28;20090;-52
2021/01/06 03:17:04;;;;;;;8.45;6.30;;;16.40;74.20;;;;;;2080112;28;20071;-51
2021/01/06 03:18:05;;;;;;;8.18;6.90;;;16.50;73.80;;;;;;2080428;28;20041;-52
2021/01/06 03:19:07;;;;;;;8.48;6.90;;;16.60;73.40;;;;;;2080465;28;20104;-53
2021/01/06 03:20:22;;;;;;;8.13;6.20;;;16.60;73.20;;;;;;2079785;28;20366;-51
2021/01/06 03:21:23;;;;;;;7.35;6.43;;;16.60;73.00;;;;;;2079936;28;20759;-54
2021/01/06 03:22:26;;;;;;;7.65;6.57;;;16.50;73.30;;;;;;2080340;28;20025;-51
2021/01/06 03:23:41;;;;;;;9.05;6.93;;;16.40;73.60;;;;;;2080368;28;20029;-52
2021/01/06 03:24:50;;;;;;;8.90;6.80;;;16.40;73.60;;;;;;2079592;28;20034;-51
2021/01/06 03:25:51;;;;;;;9.48;6.60;;;16.30;73.90;;;;;;2079725;28;20030;-54
2021/01/06 03:26:55;;;;;;;7.53;6.45;;;16.30;73.90;;;;;;2080358;28;20044;-54
2021/01/06 03:27:57;;;;;;;7.50;6.63;;;16.40;73.80;;;;;;2080280;28;20132;-53
2021/01/06 03:28:58;;;;;;;7.95;6.68;;;16.50;73.60;;;;;;2080457;28;20026;-52
2021/01/06 03:30:00;;;;;;;7.95;6.70;;;16.40;73.40;;;;;;2080265;28;20646;-56
2021/01/06 03:31:04;;;;;;;8.75;7.05;;;16.50;73.40;;;;;;2080389;28;20022;-51
2021/01/06 03:32:13;;;;;;;7.72;6.60;;;16.50;73.40;;;;;;2080269;28;20030;-54
2021/01/06 03:33:20;;;;;;;7.55;6.75;;;16.40;73.40;;;;;;2080101;28;20044;-51
2021/01/06 03:34:36;;;;;;;8.27;6.70;;;16.50;73.40;;;;;;2080396;28;20105;-52
2021/01/06 03:35:41;;;;;;;7.32;6.45;;;16.40;73.40;;;;;;2079716;28;20041;-55
2021/01/06 03:36:45;;;;;;;8.00;6.78;;;16.30;73.90;;;;;;2080468;28;20053;-56
2021/01/06 03:37:58;;;;;;;7.07;6.38;;;16.20;74.10;;;;;;2080298;28;20021;-53
2021/01/06 03:39:03;;;;;;;7.38;6.50;;;16.00;74.80;;;;;;2080285;28;20134;-54
2021/01/06 03:40:14;;;;;;;8.75;7.00;;;16.00;75.20;;;;;;2079641;28;20442;-52
2021/01/06 03:41:16;;;;;;;7.65;6.55;;;16.00;75.50;;;;;;2079972;28;20024;-55
2021/01/06 03:42:17;;;;;;;8.02;6.78;;;16.00;75.50;;;;;;2080429;28;20029;-52
2021/01/06 03:43:19;;;;;;;8.10;6.90;;;16.00;75.50;;;;;;2080027;28;20034;-55
2021/01/06 03:44:21;;;;;;;8.70;6.82;;;16.00;75.40;;;;;;2080362;28;20120;-55
2021/01/06 03:45:25;;;;;;;8.32;6.43;;;16.00;75.50;;;;;;2079573;28;20034;-53
2021/01/06 03:46:33;;;;;;;7.40;6.60;;;16.00;75.40;;;;;;2080227;28;20057;-53
2021/01/06 03:47:40;;;;;;;7.97;6.78;;;16.00;75.30;;;;;;2080428;28;20387;-52
2021/01/06 03:48:56;;;;;;;7.72;6.60;;;16.00;75.50;;;;;;2080247;28;20060;-52
2021/01/06 03:50:21;;;;;;;8.30;6.90;;;16.00;75.20;;;;;;2079591;28;20113;-52
2021/01/06 03:51:52;;;;;;;7.93;6.78;;;16.00;75.50;;;;;;2079509;28;20098;-55
2021/01/06 03:52:59;;;;;;;7.82;6.47;;;16.00;75.40;;;;;;2080210;28;20041;-53
2021/01/06 03:54:28;;;;;;;8.30;6.82;;;16.00;75.30;;;;;;2079759;28;20029;-54
2021/01/06 03:55:45;;;;;;;7.40;6.53;;;16.00;75.30;;;;;;2079332;28;20038;-55
2021/01/06 03:56:46;;;;;;;7.72;6.68;;;16.00;75.30;;;;;;2080269;28;20018;-54
2021/01/06 03:57:54;;;;;;;8.00;6.90;;;16.00;76.10;;;;;;2080129;28;20040;-53
2021/01/06 03:59:13;;;;;;;8.80;6.82;;;16.00;75.30;;;;;;2080351;28;20045;-53
2021/01/06 04:00:32;;;;;;;8.95;6.80;;;15.90;75.40;;;;;;2080016;28;20101;-57
2021/01/06 04:01:50;;;;;;;7.57;6.70;;;16.00;75.40;;;;;;2079776;28;20024;-51
2021/01/06 04:02:56;;;;;;;8.00;6.75;;;16.00;75.10;;;;;;2080233;28;20064;-51
2021/01/06 04:04:00;;;;;;;8.98;6.93;;;16.00;75.30;;;;;;2080299;28;20118;-52
2021/01/06 04:05:07;;;;;;;8.25;6.75;;;16.00;75.10;;;;;;2079711;28;20037;-54
2021/01/06 04:06:10;;;;;;;7.38;6.57;;;16.10;75.00;;;;;;2080112;28;20033;-54
2021/01/06 04:07:29;;;;;;;7.50;6.43;;;16.10;74.80;;;;;;2080175;28;20026;-55
2021/01/06 04:08:54;;;;;;;7.65;6.82;;;16.10;74.90;;;;;;2080174;28;20032;-56
2021/01/06 04:10:00;;;;;;;9.15;7.00;;;16.30;74.20;;;;;;2079675;28;20411;-54
2021/01/06 04:11:02;;;;;;;7.45;6.43;;;16.30;73.90;;;;;;2079526;28;20033;-54
2021/01/06 04:12:07;;;;;;;7.43;6.22;;;16.30;73.90;;;;;;2079535;28;20037;-51
2021/01/06 04:13:08;;;;;;;7.35;6.60;;;16.20;73.90;;;;;;2080108;28;20051;-54
2021/01/06 04:14:09;;;;;;;7.53;6.50;;;16.30;73.90;;;;;;2079950;28;20030;-55
2021/01/06 04:15:12;;;;;;;7.15;6.45;;;16.30;73.70;;;;;;2079314;28;20029;-52
2021/01/06 04:16:13;;;;;;;7.50;6.70;;;16.30;73.60;;;;;;2079970;28;20029;-51
2021/01/06 04:17:20;;;;;;;7.47;6.50;;;16.30;73.50;;;;;;2079708;28;20078;-50
2021/01/06 04:18:20;;;;;;;7.50;6.55;;;16.30;73.50;;;;;;2079278;28;20454;-56
2021/01/06 04:19:21;;;;;;;7.75;6.72;;;16.30;73.50;;;;;;2080084;28;20074;-51
2021/01/06 04:20:39;;;;;;;7.35;6.35;;;16.40;73.50;;;;;;2080051;28;20033;-53
2021/01/06 04:21:40;;;;;;;8.18;6.30;;;16.40;73.10;;;;;;2080061;28;20369;-51
2021/01/06 04:22:52;;;;;;;7.05;6.22;;;16.40;72.90;;;;;;2080037;28;20055;-51
2021/01/06 04:23:53;;;;;;;7.95;6.90;;;16.40;73.10;;;;;;2080047;28;20029;-50
2021/01/06 04:24:54;;;;;;;7.70;6.90;;;16.30;73.30;;;;;;2079739;28;20395;-54
2021/01/06 04:25:55;;;;;;;7.82;6.63;;;16.30;73.60;;;;;;2079522;28;20034;-51
2021/01/06 04:26:55;;;;;;;7.53;6.38;;;16.30;73.70;;;;;;2079736;28;20090;-51
2021/01/06 04:28:01;;;;;;;8.23;6.50;;;16.30;73.80;;;;;;2079987;28;20047;-52
2021/01/06 04:29:02;;;;;;;7.75;6.50;;;16.30;73.50;;;;;;2080008;28;20157;-53
2021/01/06 04:30:16;;;;;;;7.93;6.53;;;16.30;73.60;;;;;;2079975;28;20575;-52
2021/01/06 04:31:20;;;;;;;7.47;6.53;;;16.40;73.40;;;;;;2079544;28;20028;-54
2021/01/06 04:32:20;;;;;;;7.75;6.55;;;16.30;73.30;;;;;;2079038;28;20026;-51
2021/01/06 04:33:27;;;;;;;7.85;6.50;;;16.30;73.30;;;;;;2080027;28;20030;-53
2021/01/06 04:34:27;;;;;;;9.75;6.50;;;16.30;73.40;;;;;;2079924;28;20014;-51
2021/01/06 04:35:29;;;;;;;7.07;6.28;;;16.30;73.70;;;;;;2078944;28;20064;-53
2021/01/06 04:36:31;;;;;;;7.60;6.50;;;16.20;74.00;;;;;;2079899;28;20025;-53
2021/01/06 04:37:32;;;;;;;7.80;6.30;;;16.30;73.90;;;;;;2079870;28;20025;-51
2021/01/06 04:38:37;;;;;;;8.13;6.63;;;16.30;73.50;;;;;;2079871;28;20025;-57
2021/01/06 04:39:38;;;;;;;7.30;6.47;;;16.40;73.30;;;;;;2079964;28;20069;-52
2021/01/06 04:40:42;;;;;;;6.97;6.28;;;16.50;73.10;;;;;;2079540;28;20101;-50
2021/01/06 04:41:50;;;;;;;7.60;6.53;;;16.50;72.80;;;;;;2079934;28;20090;-53
2021/01/06 04:42:51;;;;;;;7.43;6.60;;;16.40;72.80;;;;;;2079952;28;20132;-50
2021/01/06 04:44:00;;;;;;;7.43;6.63;;;16.50;72.80;;;;;;2079823;28;20021;-51
2021/01/06 04:45:07;;;;;;;7.47;6.30;;;16.50;72.70;;;;;;2079570;28;20033;-49
2021/01/06 04:46:29;;;;;;;7.30;6.38;;;16.50;72.70;;;;;;2080203;28;20078;-51
2021/01/06 04:47:37;;;;;;;7.05;6.20;;;16.50;72.60;;;;;;2080021;28;20109;-50
2021/01/06 04:48:50;;;;;;;7.78;6.47;;;16.50;72.90;;;;;;2079861;28;20040;-53
2021/01/06 04:50:25;;;;;;;6.65;5.95;;;16.50;72.70;;;;;;2079491;28;20037;-51
2021/01/06 04:51:56;;;;;;;7.75;6.30;;;16.50;72.80;;;;;;2079914;28;20128;-54
2021/01/06 04:52:59;;;;;;;6.90;6.03;;;16.70;72.50;;;;;;2079869;28;20043;-54
2021/01/06 04:54:42;;;;;;;6.78;6.05;;;16.80;71.90;;;;;;2079766;28;20080;-54
2021/01/06 04:55:57;;;;;;;7.95;6.00;;;16.90;71.70;;;;;;2079265;28;20018;-54
2021/01/06 04:57:01;;;;;;;6.85;6.13;;;17.10;71.40;;;;;;2079869;28;20438;-50
2021/01/06 04:58:29;;;;;;;6.82;5.55;;;17.20;70.70;;;;;;2079286;28;20030;-51
2021/01/06 05:00:00;;;;;;;6.38;5.70;;;17.40;70.30;;;;;;2079821;28;20539;-52
2021/01/06 05:01:43;;;;;;;6.82;5.95;;;17.40;69.90;;;;;;2079880;28;20125;-51
2021/01/06 05:03:01;;;;;;;6.50;5.65;;;17.60;69.50;;;;;;2079827;28;20041;-50
2021/01/06 05:04:24;;;;;;;6.55;5.78;;;17.70;69.20;;;;;;2079454;28;20605;-56
2021/01/06 05:05:36;;;;;;;6.40;5.80;;;17.70;68.90;;;;;;2078959;28;20732;-52
2021/01/06 05:07:06;;;;;;;7.25;5.82;;;17.90;68.60;;;;;;2079137;28;20475;-50
2021/01/06 05:08:25;;;;;;;6.78;5.88;;;18.00;68.20;;;;;;2079421;28;20029;-50
2021/01/06 05:09:32;;;;;;;6.72;5.85;;;18.00;68.20;;;;;;2079744;28;20038;-52
2021/01/06 05:10:39;;;;;;;7.57;6.10;;;18.10;68.00;;;;;;2079780;28;20018;-56
2021/01/06 05:12:08;;;;;;;6.70;5.40;;;18.10;67.70;;;;;;2079775;28;20499;-49
2021/01/06 05:13:28;;;;;;;7.55;6.07;;;18.20;67.60;;;;;;2079526;28;20113;-53
2021/01/06 05:14:33;;;;;;;7.20;5.85;;;18.20;67.50;;;;;;2071955;28;20244;-54
2021/01/06 05:15:36;;;;;;;7.00;5.97;;;18.30;67.40;;;;;;2079243;28;20035;-54
2021/01/06 05:16:43;;;;;;;6.95;5.60;;;18.30;67.20;;;;;;2079767;28;20029;-52
2021/01/06 05:17:44;;;;;;;6.40;5.60;;;18.40;66.90;;;;;;2079094;28;20036;-51
2021/01/06 05:18:45;;;;;;;7.43;6.00;;;18.50;66.80;;;;;;2079018;28;20416;-54
2021/01/06 05:19:50;;;;;;;6.03;5.40;;;18.40;66.80;;;;;;2079636;28;20357;-50
2021/01/06 05:20:50;;;;;;;6.30;5.70;;;18.50;66.90;;;;;;2079748;28;20033;-54
2021/01/06 05:21:52;;;;;;;6.00;5.40;;;18.70;66.40;;;;;;2079689;28;20364;-53
2021/01/06 05:22:53;;;;;;;6.28;5.68;;;18.70;66.10;;;;;;2079881;28;20021;-50
2021/01/06 05:24:00;;;;;;;6.82;5.57;;;18.60;66.20;;;;;;2079708;28;20065;-51
2021/01/06 05:25:03;;;;;;;6.95;5.70;;;18.70;66.30;;;;;;2079340;28;20025;-50
2021/01/06 05:26:05;;;;;;;6.45;5.57;;;18.60;66.30;;;;;;2079244;28;20045;-50
2021/01/06 05:27:14;;;;;;;6.45;5.50;;;18.70;66.20;;;;;;2079848;28;20078;-51
2021/01/06 05:28:19;;;;;;;6.10;5.40;;;18.70;66.10;;;;;;2079350;28;20034;-52
2021/01/06 05:29:27;;;;;;;6.22;5.32;;;18.70;66.10;;;;;;2078120;28;20071;-55
2021/01/06 05:30:33;;;;;;;6.75;5.50;;;18.80;66.00;;;;;;2079175;28;20021;-53
2021/01/06 05:31:34;;;;;;;6.28;5.45;;;18.70;65.90;;;;;;2079729;28;20026;-51
2021/01/06 05:32:40;;;;;;;6.13;5.38;;;18.70;65.90;;;;;;2079539;28;20034;-56
2021/01/06 05:33:45;;;;;;;6.43;5.60;;;18.80;66.00;;;;;;2079606;28;20025;-50
2021/01/06 05:34:51;;;;;;;6.85;5.68;;;18.90;65.80;;;;;;2079344;28;20026;-50
2021/01/06 05:35:52;;;;;;;5.85;5.25;;;19.00;66.30;;;;;;2079191;28;20375;-50
2021/01/06 05:36:56;;;;;;;5.70;5.10;;;18.90;65.40;;;;;;2078933;28;20026;-52
2021/01/06 05:38:01;;;;;;;6.75;5.63;;;19.00;65.50;;;;;;2079583;28;20025;-51
2021/01/06 05:39:24;;;;;;;6.45;5.43;;;18.90;65.30;;;;;;2078925;28;20058;-50
2021/01/06 05:40:26;;;;;;;6.20;5.30;;;19.00;65.40;;;;;;2079229;28;20022;-50
2021/01/06 05:41:26;;;;;;;6.70;5.63;;;19.00;65.30;;;;;;2078630;28;20070;-53
2021/01/06 05:42:32;;;;;;;6.40;5.60;;;19.00;65.40;;;;;;2078901;28;20150;-56
2021/01/06 05:43:39;;;;;;;5.82;5.22;;;19.00;65.50;;;;;;2079597;28;20033;-53